Terminal Aerodrome Forecast
Issued by NWS

Home | Current Version | Previous Version | Text Only | Print | Product List | Glossary On
Versions: 1 2 3 4 5 6 7 8 9 10 11 12 13 14 15 16 17 18
000
FTUS42 KFFC 242320
TAFRYY
TAF
KRYY 242320Z 2500/2524 VRB03KT P6SM FEW080
     FM251500 24005KT P6SM FEW060 SCT250
     FM251700 21007KT P6SM SCT070 BKN250
      AMD NOT SKED 2504/2512=

USA.gov is the U.S. government's official web portal to all federal, state and local government web resources and services.